Time,TemperatureF,DewpointF,PressureIn,WindDirection,WindDirectionDegrees,WindSpeedMPH,WindSpeedGustMPH,Humidity,HourlyPrecipIn,Conditions,Clouds,dailyrainin,SolarRadiationWatts/m^2,SoftwareType,DateUTC
2013-04-24 00:00:00,44.1,39.9,30.13,NW,319,8.0,15.0,85,0.00,,CLR,0.01,179.00,VWS V15.00,2013-04-24 05:00:00,
2013-04-24 00:01:00,42.7,39.1,30.16,NNE,32,13.0,13.0,87,0.00,,OVC020,0.00,179.00,VWS V14.01,2013-04-24 05:01:00,
2013-04-24 00:07:00,42.5,38.9,30.16,West,279,10.0,15.0,87,0.00,,OVC020,0.00,179.00,VWS V14.01,2013-04-24 05:07:00,
2013-04-24 00:10:00,43.9,39.7,30.13,NW,317,3.0,14.0,85,0.00,,CLR,0.01,179.00,VWS V15.00,2013-04-24 05:10:00,
2013-04-24 00:12:00,42.6,39.3,30.16,NW,323,9.0,13.0,88,0.00,,OVC020,0.00,179.00,VWS V14.01,2013-04-24 05:12:00,
2013-04-24 00:17:00,42.4,39.1,30.17,NW,309,3.0,16.0,88,0.00,,OVC020,0.00,179.00,VWS V14.01,2013-04-24 05:17:00,
2013-04-24 00:20:00,43.6,39.7,30.14,NNE,20,10.0,19.0,86,0.00,,CLR,0.01,179.00,VWS V15.00,2013-04-24 05:20:00,
2013-04-24 00:22:00,42.3,39.3,30.17,NW,320,4.0,6.0,89,0.00,,OVC020,0.00,179.00,VWS V14.01,2013-04-24 05:22:00,
2013-04-24 00:27:00,42.2,39.2,30.17,NW,323,3.0,16.0,89,0.00,,OVC020,0.00,179.00,VWS V14.01,2013-04-24 05:27:00,
2013-04-24 00:30:00,43.2,39.3,30.15,East,100,5.0,15.0,86,0.00,,CLR,0.01,179.00,VWS V15.00,2013-04-24 05:30:00,
2013-04-24 00:32:00,42.1,39.1,30.17,NNE,13,3.0,9.0,89,0.00,,OVC020,0.00,179.00,VWS V14.01,2013-04-24 05:32:00,
2013-04-24 00:37:00,41.9,38.9,30.17,NNW,338,16.0,16.0,89,0.00,,-RA,0.00,179.00,VWS V14.01,2013-04-24 05:37:00,
2013-04-24 00:40:00,43.0,39.1,30.15,WNW,303,13.0,14.0,86,0.00,,CLR,0.01,179.00,VWS V15.00,2013-04-24 05:40:00,
2013-04-24 00:42:00,41.8,39.1,30.17,NNW,327,5.0,12.0,90,0.00,,-RA,0.00,179.00,VWS V14.01,2013-04-24 05:42:00,
2013-04-24 00:47:00,41.7,38.7,30.16,NW,319,11.0,12.0,89,0.00,,-RA,0.00,179.00,VWS V14.01,2013-04-24 05:47:00,
2013-04-24 00:50:00,42.9,39.0,30.15,NNW,331,7.0,13.0,86,0.00,,CLR,0.01,179.00,VWS V15.00,2013-04-24 05:50:00,
2013-04-24 00:52:00,41.8,39.1,30.16,NNW,346,13.0,13.0,90,0.00,,-RA,0.00,179.00,VWS V14.01,2013-04-24 05:52:00,
2013-04-24 00:57:00,41.8,38.8,30.16,NW,306,4.0,13.0,89,0.00,,-RA,0.00,179.00,VWS V14.01,2013-04-24 05:57:00,
2013-04-24 01:00:00,42.7,39.1,30.16,NNE,27,12.0,16.0,87,0.00,,CLR,0.00,179.00,VWS V15.00,2013-04-24 06:00:00,
2013-04-24 01:02:00,41.8,38.8,30.17,NW,315,7.0,11.0,89,0.00,,-RA,0.00,179.00,VWS V14.01,2013-04-24 06:02:00,
2013-04-24 01:07:00,41.7,38.4,30.17,NW,319,7.0,13.0,88,0.00,,-RA,0.00,179.00,VWS V14.01,2013-04-24 06:07:00,
2013-04-24 01:10:00,42.6,39.3,30.16,NNW,331,10.0,15.0,88,0.00,,CLR,0.00,179.00,VWS V15.00,2013-04-24 06:10:00,
2013-04-24 01:12:00,41.7,38.4,30.17,WNW,286,5.0,10.0,88,0.00,,-RA,0.00,179.00,VWS V14.01,2013-04-24 06:12:00,
2013-04-24 01:17:00,41.6,38.0,30.17,NE,55,5.0,14.0,87,0.00,,-RA,0.00,179.00,VWS V14.01,2013-04-24 06:17:00,
2013-04-24 01:20:00,42.3,39.3,30.17,NW,321,3.0,16.0,89,0.00,,CLR,0.00,179.00,VWS V15.00,2013-04-24 06:20:00,
2013-04-24 01:22:00,41.7,38.1,30.17,NW,319,7.0,13.0,87,0.00,,-RA,0.00,179.00,VWS V14.01,2013-04-24 06:22:00,
2013-04-24 01:27:00,41.7,38.1,30.17,NNW,347,5.0,13.0,87,0.00,,-RA,0.00,179.00,VWS V14.01,2013-04-24 06:27:00,
2013-04-24 01:30:00,42.1,39.1,30.17,NNW,333,7.0,16.0,89,0.00,,CLR,0.00,179.00,VWS V15.00,2013-04-24 06:30:00,
2013-04-24 01:32:00,41.7,38.1,30.18,WNW,286,6.0,11.0,87,0.00,,-RA,0.00,179.00,VWS V14.01,2013-04-24 06:32:00,
2013-04-24 01:37:00,41.6,38.3,30.18,NNW,346,1.0,12.0,88,0.01,,OVC044,0.01,179.00,VWS V14.01,2013-04-24 06:37:00,
2013-04-24 01:40:00,41.8,39.1,30.17,WNW,297,9.0,16.0,90,0.00,,CLR,0.00,179.00,VWS V15.00,2013-04-24 06:40:00,
2013-04-24 01:42:00,41.5,38.5,30.18,NNW,340,4.0,10.0,89,0.02,,OVC044,0.02,179.00,VWS V14.01,2013-04-24 06:42:00,
2013-04-24 01:47:00,41.3,38.3,30.17,South,178,2.0,12.0,89,0.06,,OVC044,0.06,179.00,VWS V14.01,2013-04-24 06:47:00,
2013-04-24 01:50:00,41.7,39.0,30.16,WNW,303,2.0,12.0,90,0.00,,CLR,0.00,179.00,VWS V15.00,2013-04-24 06:50:00,
2013-04-24 01:52:00,41.0,38.3,30.17,WNW,283,1.0,6.0,90,0.07,,OVC044,0.07,179.00,VWS V14.01,2013-04-24 06:52:00,
2013-04-24 01:57:00,41.1,38.7,30.17,West,259,3.0,11.0,91,0.07,,OVC044,0.07,179.00,VWS V14.01,2013-04-24 06:57:00,
2013-04-24 02:00:00,41.8,38.8,30.17,NE,47,4.0,13.0,89,0.00,,CLR,0.00,179.00,VWS V15.00,2013-04-24 07:00:00,
2013-04-24 02:02:00,40.9,38.5,30.17,NW,313,1.0,9.0,91,0.07,,OVC044,0.07,179.00,VWS V14.01,2013-04-24 07:02:00,
2013-04-24 02:07:00,40.9,38.5,30.17,NW,315,10.0,14.0,91,0.07,,OVC044,0.07,179.00,VWS V14.01,2013-04-24 07:07:00,
2013-04-24 02:10:00,41.7,38.4,30.17,NW,313,7.0,13.0,88,0.00,,CLR,0.00,179.00,VWS V15.00,2013-04-24 07:10:00,
2013-04-24 02:12:00,40.7,38.3,30.17,WSW,250,3.0,7.0,91,0.07,,OVC044,0.07,179.00,VWS V14.01,2013-04-24 07:12:00,
2013-04-24 02:17:00,40.7,38.3,30.17,WNW,296,3.0,10.0,91,0.07,,OVC044,0.07,179.00,VWS V14.01,2013-04-24 07:17:00,
2013-04-24 02:20:00,41.7,38.4,30.17,West,267,4.0,14.0,88,0.00,,CLR,0.00,179.00,VWS V15.00,2013-04-24 07:20:00,
2013-04-24 02:22:00,40.7,38.3,30.17,NNW,338,3.0,7.0,91,0.07,,OVC044,0.07,179.00,VWS V14.01,2013-04-24 07:22:00,
2013-04-24 02:27:00,40.8,38.4,30.17,WNW,300,5.0,12.0,91,0.07,,OVC044,0.07,179.00,VWS V14.01,2013-04-24 07:27:00,
2013-04-24 02:30:00,41.7,38.1,30.18,NW,319,4.0,13.0,87,0.00,,CLR,0.00,179.00,VWS V15.00,2013-04-24 07:30:00,
2013-04-24 02:32:00,40.7,38.0,30.18,NW,304,2.0,12.0,90,0.07,,OVC044,0.07,179.00,VWS V14.01,2013-04-24 07:32:00,
2013-04-24 02:37:00,40.7,38.0,30.18,NE,38,1.0,12.0,90,0.07,,-RA,0.07,179.00,VWS V14.01,2013-04-24 07:37:00,
2013-04-24 02:40:00,41.6,38.6,30.18,West,277,4.0,12.0,89,0.01,,CLR,0.01,179.00,VWS V15.00,2013-04-24 07:40:00,
2013-04-24 02:42:00,40.7,38.0,30.18,West,276,3.0,10.0,90,0.06,,-RA,0.07,179.00,VWS V14.01,2013-04-24 07:42:00,
2013-04-24 02:47:00,40.7,38.0,30.18,SW,229,4.0,12.0,90,0.06,,-RA,0.07,179.00,VWS V14.01,2013-04-24 07:47:00,
2013-04-24 02:50:00,41.1,38.4,30.17,NNE,22,2.0,12.0,90,0.07,,CLR,0.07,179.00,VWS V15.00,2013-04-24 07:50:00,
2013-04-24 02:52:00,40.7,38.0,30.18,WNW,287,5.0,9.0,90,0.00,,-RA,0.07,179.00,VWS V14.01,2013-04-24 07:52:00,
2013-04-24 02:57:00,40.8,38.1,30.18,WNW,288,3.0,9.0,90,0.00,,-RA,0.07,179.00,VWS V14.01,2013-04-24 07:57:00,
2013-04-24 03:00:00,41.0,38.6,30.17,NE,36,5.0,11.0,91,0.07,,CLR,0.07,179.00,VWS V15.00,2013-04-24 08:00:00,
2013-04-24 03:02:00,40.9,38.2,30.20,WNW,300,3.0,10.0,90,0.00,,-RA,0.07,179.00,VWS V14.01,2013-04-24 08:02:00,
2013-04-24 03:07:00,40.9,38.2,30.20,WNW,286,3.0,10.0,90,0.00,,-RA,0.07,179.00,VWS V14.01,2013-04-24 08:07:00,
2013-04-24 03:10:00,40.7,38.3,30.17,WSW,241,6.0,14.0,91,0.07,,OVC019,0.07,179.00,VWS V15.00,2013-04-24 08:10:00,
2013-04-24 03:12:00,40.9,38.2,30.20,WNW,302,4.0,8.0,90,0.00,,-RA,0.07,179.00,VWS V14.01,2013-04-24 08:12:00,
2013-04-24 03:17:00,40.9,37.9,30.20,WNW,284,2.0,11.0,89,0.00,,-RA,0.07,179.00,VWS V14.01,2013-04-24 08:17:00,
2013-04-24 03:20:00,40.7,38.3,30.17,WSW,244,1.0,10.0,91,0.07,,CLR,0.07,179.00,VWS V15.00,2013-04-24 08:20:00,
2013-04-24 03:22:00,40.9,37.9,30.20,SW,236,4.0,11.0,89,0.00,,-RA,0.07,179.00,VWS V14.01,2013-04-24 08:22:00,
2013-04-24 03:27:00,40.9,37.9,30.20,NNW,333,8.0,15.0,89,0.00,,-RA,0.07,179.00,VWS V14.01,2013-04-24 08:27:00,
2013-04-24 03:30:00,40.7,38.0,30.18,NNW,331,3.0,13.0,90,0.07,,CLR,0.07,179.00,VWS V15.00,2013-04-24 08:30:00,
2013-04-24 03:32:00,40.8,37.5,30.20,NW,309,3.0,14.0,88,0.00,,-RA,0.07,179.00,VWS V14.01,2013-04-24 08:32:00,
2013-04-24 03:37:00,40.7,37.4,30.20,NNE,20,5.0,14.0,88,0.00,,-RA,0.07,179.00,VWS V14.01,2013-04-24 08:37:00,
2013-04-24 03:40:00,40.7,38.0,30.18,NNE,32,1.0,12.0,90,0.07,,CLR,0.07,179.00,VWS V15.00,2013-04-24 08:40:00,
2013-04-24 03:42:00,40.8,37.5,30.20,NW,313,3.0,13.0,88,0.00,,-RA,0.07,179.00,VWS V14.01,2013-04-24 08:42:00,
2013-04-24 03:47:00,40.8,37.5,30.22,NNE,24,2.0,13.0,88,0.00,,-RA,0.07,179.00,VWS V14.01,2013-04-24 08:47:00,
2013-04-24 03:50:00,40.7,37.7,30.18,WNW,284,4.0,12.0,89,0.06,,CLR,0.07,179.00,VWS V15.00,2013-04-24 08:50:00,
2013-04-24 03:52:00,40.8,37.5,30.22,WNW,286,3.0,11.0,88,0.00,,-RA,0.07,179.00,VWS V14.01,2013-04-24 08:52:00,
2013-04-24 03:57:00,40.8,37.5,30.22,NNW,340,7.0,13.0,88,0.00,,-RA,0.07,179.00,VWS V14.01,2013-04-24 08:57:00,
2013-04-24 04:00:00,40.8,38.1,30.20,SW,227,3.0,9.0,90,0.00,,CLR,0.07,179.00,VWS V15.00,2013-04-24 09:00:00,
2013-04-24 04:02:00,40.8,37.2,30.22,WNW,286,7.0,15.0,87,0.00,,-RA,0.07,179.00,VWS V14.01,2013-04-24 09:02:00,
2013-04-24 04:07:00,40.7,37.1,30.22,NNE,23,7.0,15.0,87,0.00,,-RA,0.07,179.00,VWS V14.01,2013-04-24 09:07:00,
2013-04-24 04:10:00,40.9,38.2,30.20,NNW,333,7.0,10.0,90,0.00,,CLR,0.07,179.00,VWS V15.00,2013-04-24 09:10:00,
2013-04-24 04:12:00,40.8,37.2,30.22,NW,306,9.0,11.0,87,0.00,,-RA,0.07,179.00,VWS V14.01,2013-04-24 09:12:00,
2013-04-24 04:17:00,40.7,37.1,30.22,NW,311,3.0,11.0,87,0.00,,-RA,0.07,179.00,VWS V14.01,2013-04-24 09:17:00,
2013-04-24 04:20:00,41.0,38.0,30.20,NNW,327,5.0,13.0,89,0.00,,CLR,0.07,179.00,VWS V15.00,2013-04-24 09:20:00,
2013-04-24 04:22:00,40.6,36.5,30.22,NNE,22,9.0,17.0,85,0.00,,-RA,0.07,179.00,VWS V14.01,2013-04-24 09:22:00,
2013-04-24 04:27:00,40.6,36.8,30.22,NW,319,5.0,17.0,86,0.00,,-RA,0.07,179.00,VWS V14.01,2013-04-24 09:27:00,
2013-04-24 04:30:00,40.8,37.5,30.20,NW,314,9.0,15.0,88,0.00,,OVC019,0.07,179.00,VWS V15.00,2013-04-24 09:30:00,
2013-04-24 04:32:00,40.5,36.3,30.22,West,259,7.0,11.0,85,0.00,,-RA,0.07,179.00,VWS V14.01,2013-04-24 09:32:00,
2013-04-24 04:37:00,40.5,36.0,30.22,WNW,283,9.0,16.0,84,0.00,,OVC019,0.07,179.00,VWS V14.01,2013-04-24 09:37:00,
2013-04-24 04:40:00,40.8,37.5,30.20,WSW,242,6.0,14.0,88,0.00,,CLR,0.07,179.00,VWS V15.00,2013-04-24 09:40:00,
2013-04-24 04:42:00,40.5,36.0,30.22,WNW,297,13.0,13.0,84,0.00,,OVC019,0.07,179.00,VWS V14.01,2013-04-24 09:42:00,
2013-04-24 04:47:00,40.6,36.2,30.22,WNW,288,11.0,15.0,84,0.00,,OVC019,0.07,179.00,VWS V14.01,2013-04-24 09:47:00,
2013-04-24 04:50:00,40.8,37.5,30.22,WNW,299,2.0,13.0,88,0.00,,CLR,0.07,179.00,VWS V15.00,2013-04-24 09:50:00,
2013-04-24 04:52:00,40.6,35.8,30.22,NW,311,6.0,15.0,83,0.00,,OVC019,0.07,179.00,VWS V14.01,2013-04-24 09:52:00,
2013-04-24 04:57:00,40.6,36.5,30.22,West,277,2.0,15.0,85,0.00,,OVC019,0.07,179.00,VWS V14.01,2013-04-24 09:57:00,
2013-04-24 05:00:00,40.9,37.6,30.22,NW,314,11.0,13.0,88,0.00,,CLR,0.07,179.00,VWS V15.00,2013-04-24 10:00:00,
2013-04-24 05:02:00,40.5,35.8,30.23,NNW,347,9.0,10.0,83,0.00,,OVC019,0.07,179.00,VWS V14.01,2013-04-24 10:02:00,
2013-04-24 05:07:00,40.4,35.7,30.23,NW,315,6.0,13.0,83,0.00,,OVC019,0.07,179.00,VWS V14.01,2013-04-24 10:07:00,
2013-04-24 05:10:00,40.8,37.2,30.22,WNW,294,2.0,15.0,87,0.00,,CLR,0.07,179.00,VWS V15.00,2013-04-24 10:10:00,
2013-04-24 05:12:00,40.3,35.6,30.23,NNW,333,6.0,12.0,83,0.00,,OVC019,0.07,179.00,VWS V14.01,2013-04-24 10:12:00,
2013-04-24 05:17:00,40.4,36.0,30.23,NNW,347,6.0,12.0,84,0.00,,OVC019,0.07,179.00,VWS V14.01,2013-04-24 10:17:00,
2013-04-24 05:20:00,40.6,36.8,30.22,WNW,295,5.0,14.0,86,0.00,,CLR,0.07,179.00,VWS V15.00,2013-04-24 10:20:00,
2013-04-24 05:22:00,40.4,35.7,30.23,WSW,256,5.0,9.0,83,0.00,,OVC019,0.07,179.00,VWS V14.01,2013-04-24 10:22:00,
2013-04-24 05:27:00,40.4,35.7,30.23,NW,318,3.0,13.0,83,0.00,,OVC019,0.07,179.00,VWS V14.01,2013-04-24 10:27:00,
2013-04-24 05:30:00,40.5,36.3,30.22,North,11,9.0,17.0,85,0.00,,CLR,0.07,179.00,VWS V15.00,2013-04-24 10:30:00,
2013-04-24 05:32:00,40.4,35.7,30.23,NNW,337,4.0,11.0,83,0.00,,OVC019,0.07,179.00,VWS V14.01,2013-04-24 10:32:00,
2013-04-24 05:37:00,40.4,35.7,30.23,WNW,292,5.0,11.0,83,0.00,,OVC021,0.07,179.00,VWS V14.01,2013-04-24 10:37:00,
2013-04-24 05:40:00,40.5,36.1,30.22,ENE,74,6.0,16.0,84,0.00,,CLR,0.07,179.00,VWS V15.00,2013-04-24 10:40:00,
2013-04-24 05:42:00,40.4,36.0,30.23,NW,319,6.0,7.0,84,0.00,,OVC021,0.07,179.00,VWS V14.01,2013-04-24 10:42:00,
2013-04-24 05:47:00,40.5,36.0,30.24,NNE,12,1.0,13.0,84,0.00,,OVC021,0.07,179.00,VWS V14.01,2013-04-24 10:47:00,
2013-04-24 05:50:00,40.6,35.8,30.22,West,261,11.0,16.0,83,0.00,,CLR,0.07,179.00,VWS V15.00,2013-04-24 10:50:00,
2013-04-24 05:52:00,40.5,35.8,30.24,NW,317,5.0,7.0,83,0.00,,OVC021,0.07,179.00,VWS V14.01,2013-04-24 10:52:00,
2013-04-24 05:57:00,40.6,35.8,30.24,NNE,13,1.0,16.0,83,0.00,,OVC021,0.07,179.00,VWS V14.01,2013-04-24 10:57:00,
2013-04-24 06:00:00,40.6,35.8,30.23,NW,313,5.0,16.0,83,0.00,,CLR,0.07,179.00,VWS V15.00,2013-04-24 11:00:00,
2013-04-24 06:02:00,40.6,35.8,30.25,NE,34,11.0,13.0,83,0.00,,OVC021,0.07,179.00,VWS V14.01,2013-04-24 11:02:00,
2013-04-24 06:07:00,40.5,35.5,30.25,NNW,337,8.0,17.0,82,0.00,,OVC021,0.07,179.00,VWS V14.01,2013-04-24 11:07:00,
2013-04-24 06:10:00,40.4,35.7,30.23,NNW,344,10.0,13.0,83,0.00,,CLR,0.07,179.00,VWS V15.00,2013-04-24 11:10:00,
2013-04-24 06:12:00,40.6,35.8,30.25,WNW,292,11.0,11.0,83,0.00,,OVC021,0.07,179.00,VWS V14.01,2013-04-24 11:12:00,
2013-04-24 06:17:00,40.5,35.1,30.25,North,360,5.0,15.0,81,0.00,,OVC021,0.07,179.00,VWS V14.01,2013-04-24 11:17:00,
2013-04-24 06:20:00,40.4,35.7,30.23,NW,306,5.0,13.0,83,0.00,,CLR,0.07,179.00,VWS V15.00,2013-04-24 11:20:00,
2013-04-24 06:22:00,40.6,35.5,30.25,NW,319,2.0,10.0,82,0.00,,OVC021,0.07,179.00,VWS V14.01,2013-04-24 11:22:00,
2013-04-24 06:27:00,40.6,35.5,30.25,NE,43,5.0,11.0,82,0.00,,OVC021,0.07,179.00,VWS V14.01,2013-04-24 11:27:00,
2013-04-24 06:30:00,40.4,36.0,30.23,NW,317,5.0,13.0,84,0.00,,CLR,0.07,179.00,VWS V15.00,2013-04-24 11:30:00,
2013-04-24 06:32:00,40.6,35.5,30.27,NNE,22,5.0,13.0,82,0.00,,OVC021,0.07,179.00,VWS V14.01,2013-04-24 11:32:00,
2013-04-24 06:37:00,40.6,35.2,30.27,NW,306,9.0,13.0,81,0.00,,OVC023,0.07,179.00,VWS V14.01,2013-04-24 11:37:00,
2013-04-24 06:40:00,40.4,36.0,30.23,WNW,286,1.0,11.0,84,0.00,,CLR,0.07,179.00,VWS V15.00,2013-04-24 11:40:00,
2013-04-24 06:42:00,40.6,34.9,30.27,NW,304,7.0,14.0,80,0.00,,OVC023,0.07,179.00,VWS V14.01,2013-04-24 11:42:00,
2013-04-24 06:47:00,40.6,35.2,30.27,NNW,327,5.0,16.0,81,0.00,,OVC023,0.07,179.00,VWS V14.01,2013-04-24 11:47:00,
2013-04-24 06:50:00,40.5,35.8,30.24,West,280,7.0,15.0,83,0.00,,CLR,0.07,179.00,VWS V15.00,2013-04-24 11:50:00,
2013-04-24 06:52:00,40.6,35.2,30.27,NNE,13,8.0,11.0,81,0.00,,SCT025,0.07,179.00,VWS V14.01,2013-04-24 11:52:00,
2013-04-24 06:57:00,40.5,35.1,30.27,WNW,298,5.0,12.0,81,0.00,,SCT025,0.07,179.00,VWS V14.01,2013-04-24 11:57:00,
2013-04-24 07:00:00,40.5,35.5,30.25,NNE,27,5.0,16.0,82,0.00,,OVC019,0.07,179.00,VWS V15.00,2013-04-24 12:00:00,
2013-04-24 07:02:00,40.4,35.0,30.27,NNW,340,2.0,8.0,81,0.00,,SCT025,0.07,179.00,VWS V14.01,2013-04-24 12:02:00,
2013-04-24 07:07:00,40.3,34.9,30.27,NNW,333,8.0,13.0,81,0.00,,OVC023,0.07,179.00,VWS V14.01,2013-04-24 12:07:00,
2013-04-24 07:10:00,40.6,35.5,30.25,WNW,302,6.0,17.0,82,0.00,,CLR,0.07,179.00,VWS V15.00,2013-04-24 12:10:00,
2013-04-24 07:12:00,40.2,34.8,30.27,NW,320,7.0,8.0,81,0.00,,SCT025,0.07,179.00,VWS V14.01,2013-04-24 12:12:00,
2013-04-24 07:17:00,40.3,34.9,30.27,NNW,342,4.0,9.0,81,0.00,,SCT025,0.07,179.00,VWS V14.01,2013-04-24 12:17:00,
2013-04-24 07:20:00,40.5,35.5,30.25,WNW,303,10.0,15.0,82,0.00,,CLR,0.07,179.00,VWS V15.00,2013-04-24 12:20:00,
2013-04-24 07:22:00,40.3,35.2,30.27,WNW,284,3.0,7.0,82,0.00,,SCT025,0.07,179.00,VWS V14.01,2013-04-24 12:22:00,
2013-04-24 07:27:00,40.3,34.9,30.27,NNE,27,3.0,9.0,81,0.00,,SCT025,0.07,179.00,VWS V14.01,2013-04-24 12:27:00,
2013-04-24 07:30:00,40.6,35.5,30.27,NW,311,3.0,12.0,82,0.00,,CLR,0.07,179.00,VWS V15.00,2013-04-24 12:30:00,
2013-04-24 07:32:00,40.4,35.3,30.28,NW,309,3.0,4.0,82,0.00,,SCT025,0.07,179.00,VWS V14.01,2013-04-24 12:32:00,
2013-04-24 07:37:00,40.5,35.1,30.28,NNE,22,4.0,9.0,81,0.00,,BKN025,0.07,179.00,VWS V14.01,2013-04-24 12:37:00,
2013-04-24 07:40:00,40.6,35.5,30.27,WNW,303,11.0,13.0,82,0.00,,CLR,0.07,179.00,VWS V15.00,2013-04-24 12:40:00,
2013-04-24 07:42:00,40.6,35.2,30.28,ENE,63,5.0,7.0,81,0.00,,BKN025,0.07,179.00,VWS V14.01,2013-04-24 12:42:00,
2013-04-24 07:47:00,40.7,35.3,30.28,WNW,302,0.0,7.0,81,0.00,,BKN025,0.07,179.00,VWS V14.01,2013-04-24 12:47:00,
2013-04-24 07:50:00,40.6,35.2,30.27,NNE,22,5.0,16.0,81,0.00,,CLR,0.07,179.00,VWS V15.00,2013-04-24 12:50:00,
2013-04-24 07:52:00,40.9,35.5,30.28,ENE,78,3.0,9.0,81,0.00,,BKN025,0.07,179.00,VWS V14.01,2013-04-24 12:52:00,
2013-04-24 07:57:00,40.9,35.2,30.28,NE,40,6.0,13.0,80,0.00,,BKN025,0.07,179.00,VWS V14.01,2013-04-24 12:57:00,
2013-04-24 08:00:00,40.4,35.0,30.27,NNW,344,5.0,12.0,81,0.00,,CLR,0.07,179.00,VWS V15.00,2013-04-24 13:00:00,
2013-04-24 08:02:00,40.8,34.5,30.28,ENE,60,3.0,9.0,78,0.00,,BKN025,0.07,179.00,VWS V14.01,2013-04-24 13:02:00,
2013-04-24 08:07:00,40.8,34.5,30.28,NNW,327,4.0,14.0,78,0.00,,BKN025,0.07,179.00,VWS V14.01,2013-04-24 13:07:00,
2013-04-24 08:10:00,40.3,34.9,30.27,WNW,290,4.0,13.0,81,0.00,,CLR,0.07,179.00,VWS V15.00,2013-04-24 13:10:00,
2013-04-24 08:12:00,41.1,34.5,30.28,NE,36,21.0,21.0,77,0.00,,BKN025,0.07,179.00,VWS V14.01,2013-04-24 13:12:00,
2013-04-24 08:17:00,40.9,33.9,30.28,NE,34,11.0,21.0,76,0.00,,BKN025,0.07,179.00,VWS V14.01,2013-04-24 13:17:00,
2013-04-24 08:20:00,40.3,34.9,30.27,NW,324,2.0,10.0,81,0.00,,CLR,0.07,179.00,VWS V15.00,2013-04-24 13:20:00,
2013-04-24 08:22:00,41.0,34.0,30.28,NE,53,4.0,12.0,76,0.00,,BKN025,0.07,179.00,VWS V14.01,2013-04-24 13:22:00,
2013-04-24 08:28:00,41.3,34.7,30.28,NW,318,13.0,13.0,77,0.00,,BKN025,0.07,179.00,VWS V14.01,2013-04-24 13:28:00,
2013-04-24 08:30:00,40.4,35.0,30.28,WNW,290,2.0,9.0,81,0.00,,CLR,0.07,179.00,VWS V15.00,2013-04-24 13:30:00,
2013-04-24 08:33:00,41.5,34.5,30.29,NNE,22,10.0,11.0,76,0.00,,BKN025,0.07,179.00,VWS V14.01,2013-04-24 13:33:00,
2013-04-24 08:38:00,41.7,34.7,30.29,NNW,328,6.0,11.0,76,0.00,,BKN025,0.07,179.00,VWS V14.01,2013-04-24 13:38:00,
2013-04-24 08:40:00,40.6,35.2,30.28,WNW,286,1.0,9.0,81,0.00,,CLR,0.07,179.00,VWS V15.00,2013-04-24 13:40:00,
2013-04-24 08:43:00,41.7,34.4,30.29,NW,308,7.0,10.0,75,0.00,,BKN025,0.07,179.00,VWS V14.01,2013-04-24 13:43:00,
2013-04-24 08:48:00,41.9,34.6,30.29,ESE,117,5.0,13.0,75,0.00,,BKN025,0.07,179.00,VWS V14.01,2013-04-24 13:48:00,
2013-04-24 08:50:00,40.8,35.1,30.28,East,85,4.0,7.0,80,0.00,,CLR,0.07,179.00,VWS V15.00,2013-04-24 13:50:00,
2013-04-24 08:53:00,42.3,34.6,30.29,NNE,13,2.0,16.0,74,0.00,,BKN025,0.07,179.00,VWS V14.01,2013-04-24 13:53:00,
2013-04-24 08:58:00,42.6,34.9,30.29,WNW,303,3.0,16.0,74,0.00,,BKN025,0.07,179.00,VWS V14.01,2013-04-24 13:58:00,
2013-04-24 09:00:00,40.9,34.9,30.28,NNE,19,6.0,13.0,79,0.00,,CLR,0.07,179.00,VWS V15.00,2013-04-24 14:00:00,
2013-04-24 09:03:00,42.9,34.8,30.29,NNW,333,5.0,13.0,73,0.00,,BKN025,0.07,179.00,VWS V14.01,2013-04-24 14:03:00,
2013-04-24 09:08:00,43.1,34.7,30.29,NE,35,5.0,13.0,72,0.00,,BKN025,0.07,179.00,VWS V14.01,2013-04-24 14:08:00,
2013-04-24 09:10:00,41.0,34.7,30.28,NE,51,6.0,14.0,78,0.00,,CLR,0.07,179.00,VWS V15.00,2013-04-24 14:10:00,
2013-04-24 09:13:00,43.2,34.5,30.29,NE,44,12.0,15.0,71,0.00,,BKN025,0.07,179.00,VWS V14.01,2013-04-24 14:13:00,
2013-04-24 09:18:00,43.3,34.9,30.30,SSE,164,2.0,15.0,72,0.00,,BKN025,0.07,179.00,VWS V14.01,2013-04-24 14:18:00,
2013-04-24 09:20:00,40.9,33.9,30.28,NNE,31,10.0,21.0,76,0.00,,CLR,0.07,179.00,VWS V15.00,2013-04-24 14:20:00,
2013-04-24 09:23:00,44.0,35.6,30.30,NNE,32,3.0,15.0,72,0.00,,BKN025,0.07,179.00,VWS V14.01,2013-04-24 14:23:00,
2013-04-24 09:28:00,44.2,35.0,30.30,NW,310,6.0,15.0,70,0.00,,BKN025,0.07,179.00,VWS V14.01,2013-04-24 14:28:00,
2013-04-24 09:30:00,41.4,34.4,30.29,ESE,109,11.0,13.0,76,0.00,,CLR,0.07,179.00,VWS V15.00,2013-04-24 14:30:00,
2013-04-24 09:33:00,44.6,36.2,30.30,ENE,71,6.0,11.0,72,0.00,,BKN025,0.07,179.00,VWS V14.01,2013-04-24 14:33:00,
2013-04-24 09:37:00,45.1,35.5,30.30,NNE,20,5.0,11.0,69,0.00,,FEW025,0.07,179.00,VWS V14.01,2013-04-24 14:37:00,
2013-04-24 09:40:00,41.7,34.4,30.29,NW,313,3.0,13.0,75,0.00,,CLR,0.07,179.00,VWS V15.00,2013-04-24 14:40:00,
2013-04-24 09:43:00,45.2,35.7,30.30,NW,325,3.0,9.0,69,0.00,,FEW025,0.07,179.00,VWS V14.01,2013-04-24 14:43:00,
2013-04-24 09:48:00,45.4,35.5,30.30,East,89,5.0,13.0,68,0.00,,FEW025,0.07,179.00,VWS V14.01,2013-04-24 14:48:00,
2013-04-24 09:50:00,42.2,34.9,30.29,NW,317,11.0,13.0,75,0.00,,CLR,0.07,179.00,VWS V15.00,2013-04-24 14:50:00,
2013-04-24 09:53:00,45.4,35.1,30.30,NNE,31,5.0,14.0,67,0.00,,FEW025,0.07,179.00,VWS V14.01,2013-04-24 14:53:00,
2013-04-24 09:58:00,45.6,35.3,30.30,NNE,20,7.0,16.0,67,0.00,,FEW025,0.07,179.00,VWS V14.01,2013-04-24 14:58:00,
2013-04-24 10:00:00,42.7,35.0,30.29,NNW,338,8.0,16.0,74,0.00,,CLR,0.07,179.00,VWS V15.00,2013-04-24 15:00:00,
2013-04-24 10:03:00,45.8,35.5,30.30,NW,307,6.0,8.0,67,0.00,,FEW025,0.07,179.00,VWS V14.01,2013-04-24 15:03:00,
2013-04-24 10:09:00,46.1,36.1,30.30,NW,321,3.0,9.0,68,0.00,,FEW025,0.07,179.00,VWS V14.01,2013-04-24 15:09:00,
2013-04-24 10:10:00,43.3,34.9,30.29,NE,46,7.0,15.0,72,0.00,,CLR,0.07,179.00,VWS V15.00,2013-04-24 15:10:00,
2013-04-24 10:14:00,46.6,35.9,30.30,NE,42,10.0,10.0,66,0.00,,FEW025,0.07,179.00,VWS V14.01,2013-04-24 15:14:00,
2013-04-24 10:19:00,46.9,36.5,30.30,NW,313,2.0,13.0,67,0.00,,FEW025,0.07,179.00,VWS V14.01,2013-04-24 15:19:00,
2013-04-24 10:20:00,43.8,35.7,30.30,ENE,57,15.0,15.0,73,0.00,,CLR,0.07,179.00,VWS V15.00,2013-04-24 15:20:00,
2013-04-24 10:24:00,47.3,35.8,30.30,NW,313,4.0,13.0,64,0.00,,FEW025,0.07,179.00,VWS V14.01,2013-04-24 15:24:00,
2013-04-24 10:29:00,47.6,36.4,30.30,WNW,299,4.0,13.0,65,0.00,,FEW025,0.07,179.00,VWS V14.01,2013-04-24 15:29:00,
2013-04-24 10:30:00,44.3,35.5,30.30,ENE,59,6.0,15.0,71,0.00,,CLR,0.07,179.00,VWS V15.00,2013-04-24 15:30:00,
2013-04-24 10:34:00,47.7,36.1,30.30,WNW,303,4.0,11.0,64,0.00,,FEW025,0.07,179.00,VWS V14.01,2013-04-24 15:34:00,
2013-04-24 10:39:00,47.8,36.2,30.30,NE,38,4.0,11.0,64,0.00,,FEW030,0.07,179.00,VWS V14.01,2013-04-24 15:39:00,
2013-04-24 10:40:00,45.1,35.5,30.30,NNE,23,7.0,13.0,69,0.00,,CLR,0.07,179.00,VWS V15.00,2013-04-24 15:40:00,
2013-04-24 10:44:00,48.6,37.0,30.30,NE,39,6.0,6.0,64,0.00,,FEW030,0.07,179.00,VWS V14.01,2013-04-24 15:44:00,
2013-04-24 10:49:00,48.7,36.7,30.30,ENE,78,1.0,12.0,63,0.00,,FEW030,0.07,179.00,VWS V14.01,2013-04-24 15:49:00,
2013-04-24 10:50:00,45.5,34.8,30.30,NNW,344,11.0,13.0,66,0.00,,CLR,0.07,179.00,VWS V15.00,2013-04-24 15:50:00,
2013-04-24 10:54:00,49.2,37.2,30.30,NE,36,7.0,9.0,63,0.00,,FEW030,0.07,179.00,VWS V14.01,2013-04-24 15:54:00,
2013-04-24 10:59:00,48.8,36.4,30.30,NE,42,7.0,15.0,62,0.00,,FEW030,0.07,179.00,VWS V14.01,2013-04-24 15:59:00,
2013-04-24 11:00:00,45.6,35.7,30.30,NE,44,6.0,16.0,68,0.00,,CLR,0.07,179.00,VWS V15.00,2013-04-24 16:00:00,
2013-04-24 11:04:00,49.1,37.1,30.30,NNE,23,4.0,11.0,63,0.00,,FEW030,0.07,179.00,VWS V14.01,2013-04-24 16:04:00,
2013-04-24 11:09:00,49.1,37.1,30.30,NW,319,7.0,12.0,63,0.00,,FEW030,0.07,179.00,VWS V14.01,2013-04-24 16:09:00,
2013-04-24 11:10:00,46.3,36.0,30.30,NW,318,3.0,13.0,67,0.00,,CLR,0.07,179.00,VWS V15.00,2013-04-24 16:10:00,
2013-04-24 11:14:00,49.1,37.5,30.30,NNW,331,9.0,14.0,64,0.00,,FEW030,0.07,179.00,VWS V14.01,2013-04-24 16:14:00,
2013-04-24 11:19:00,49.1,36.7,30.30,ENE,67,4.0,14.0,62,0.00,,FEW030,0.07,179.00,VWS V14.01,2013-04-24 16:19:00,
2013-04-24 11:20:00,47.1,36.7,30.30,NE,39,4.0,13.0,67,0.00,,OVC019,0.07,179.00,VWS V15.00,2013-04-24 16:20:00,
2013-04-24 11:24:00,49.5,37.4,30.30,NNE,20,9.0,13.0,63,0.00,,FEW030,0.07,179.00,VWS V14.01,2013-04-24 16:24:00,
2013-04-24 11:29:00,48.8,36.4,30.30,NNW,342,6.0,16.0,62,0.00,,FEW030,0.07,179.00,VWS V14.01,2013-04-24 16:29:00,
2013-04-24 11:30:00,47.7,36.5,30.30,WNW,296,10.0,13.0,65,0.00,,CLR,0.07,179.00,VWS V15.00,2013-04-24 16:30:00,
2013-04-24 11:34:00,49.2,36.8,30.31,NE,55,5.0,13.0,62,0.00,,FEW030,0.07,179.00,VWS V14.01,2013-04-24 16:34:00,
2013-04-24 11:39:00,49.3,36.8,30.31,NW,315,6.0,16.0,62,0.00,,FEW030,0.07,179.00,VWS V14.01,2013-04-24 16:39:00,
2013-04-24 11:40:00,47.9,36.7,30.30,WNW,287,2.0,11.0,65,0.00,,CLR,0.07,179.00,VWS V15.00,2013-04-24 16:40:00,
2013-04-24 11:44:00,49.4,36.9,30.31,NE,43,4.0,11.0,62,0.00,,FEW030,0.07,179.00,VWS V14.01,2013-04-24 16:44:00,
2013-04-24 11:49:00,50.0,37.5,30.31,NNE,24,10.0,11.0,62,0.00,,FEW030,0.07,179.00,VWS V14.01,2013-04-24 16:49:00,
2013-04-24 11:50:00,48.8,37.2,30.30,ENE,58,6.0,12.0,64,0.00,,CLR,0.07,179.00,VWS V15.00,2013-04-24 16:50:00,
2013-04-24 11:54:00,50.7,37.8,30.31,ENE,59,6.0,13.0,61,0.00,,FEW030,0.07,179.00,VWS V14.01,2013-04-24 16:54:00,
2013-04-24 11:59:00,51.0,38.0,30.31,ENE,63,5.0,13.0,61,0.00,,FEW030,0.07,179.00,VWS V14.01,2013-04-24 16:59:00,
2013-04-24 12:00:00,48.9,36.9,30.30,WNW,286,1.0,15.0,63,0.00,,CLR,0.07,179.00,VWS V15.00,2013-04-24 17:00:00,
2013-04-24 12:04:00,51.8,37.9,30.30,WNW,290,4.0,12.0,59,0.00,,FEW030,0.07,179.00,VWS V14.01,2013-04-24 17:04:00,
2013-04-24 12:09:00,51.6,37.8,30.30,ENE,63,8.0,12.0,59,0.00,,FEW030,0.07,179.00,VWS V14.01,2013-04-24 17:09:00,
2013-04-24 12:10:00,49.1,36.7,30.30,NW,324,3.0,12.0,62,0.00,,CLR,0.07,179.00,VWS V15.00,2013-04-24 17:10:00,
2013-04-24 12:14:00,51.8,37.1,30.30,NE,46,5.0,16.0,57,0.00,,FEW030,0.07,179.00,VWS V14.01,2013-04-24 17:14:00,
2013-04-24 12:19:00,51.8,37.5,30.29,East,94,5.0,16.0,58,0.00,,FEW030,0.07,179.00,VWS V14.01,2013-04-24 17:19:00,
2013-04-24 12:20:00,49.1,36.7,30.30,West,280,3.0,14.0,62,0.00,,CLR,0.07,179.00,VWS V15.00,2013-04-24 17:20:00,
2013-04-24 12:24:00,51.9,38.0,30.29,ENE,58,3.0,14.0,59,0.00,,FEW030,0.07,179.00,VWS V14.01,2013-04-24 17:24:00,
2013-04-24 12:29:00,52.1,37.8,30.29,NW,323,3.0,14.0,58,0.00,,FEW030,0.07,179.00,VWS V14.01,2013-04-24 17:29:00,
2013-04-24 12:30:00,48.8,36.8,30.31,NNE,28,11.0,16.0,63,0.00,,CLR,0.07,179.00,VWS V15.00,2013-04-24 17:30:00,
2013-04-24 12:34:00,52.5,38.2,30.29,North,11,9.0,15.0,58,0.00,,FEW035,0.07,179.00,VWS V14.01,2013-04-24 17:34:00,
2013-04-24 12:39:00,52.6,38.3,30.29,NNE,19,13.0,15.0,58,0.00,,FEW035,0.07,179.00,VWS V14.01,2013-04-24 17:39:00,
2013-04-24 12:40:00,49.2,36.3,30.31,NNE,23,11.0,16.0,61,0.00,,CLR,0.07,179.00,VWS V15.00,2013-04-24 17:40:00,
2013-04-24 12:44:00,52.7,37.9,30.29,NNE,18,12.0,14.0,57,0.00,,FEW035,0.07,179.00,VWS V14.01,2013-04-24 17:44:00,
2013-04-24 12:49:00,52.9,37.7,30.29,NNW,346,1.0,14.0,56,0.00,,FEW035,0.07,179.00,VWS V14.01,2013-04-24 17:49:00,
2013-04-24 12:50:00,50.2,37.7,30.31,NE,35,6.0,11.0,62,0.00,,CLR,0.07,179.00,VWS V15.00,2013-04-24 17:50:00,
2013-04-24 12:54:00,53.2,38.4,30.29,ENE,59,12.0,14.0,57,0.00,,FEW035,0.07,179.00,VWS V14.01,2013-04-24 17:54:00,
2013-04-24 12:59:00,52.9,37.2,30.29,NNE,17,6.0,15.0,55,0.00,,FEW035,0.07,179.00,VWS V14.01,2013-04-24 17:59:00,
2013-04-24 13:00:00,51.2,38.2,30.30,NW,310,1.0,13.0,61,0.00,,CLR,0.07,179.00,VWS V15.00,2013-04-24 18:00:00,
2013-04-24 13:04:00,53.1,38.3,30.27,NNW,338,7.0,13.0,57,0.00,,FEW035,0.07,179.00,VWS V14.01,2013-04-24 18:04:00,
2013-04-24 13:09:00,53.6,38.3,30.27,NE,42,4.0,14.0,56,0.00,,FEW035,0.07,179.00,VWS V14.01,2013-04-24 18:09:00,
2013-04-24 13:10:00,51.6,37.3,30.30,NNW,340,7.0,12.0,58,0.00,,CLR,0.07,179.00,VWS V15.00,2013-04-24 18:10:00,
2013-04-24 13:14:00,54.1,37.4,30.27,NNW,333,6.0,14.0,53,0.00,,FEW035,0.07,179.00,VWS V14.01,2013-04-24 18:14:00,
2013-04-24 13:19:00,54.2,37.9,30.27,NNE,28,7.0,14.0,54,0.00,,FEW035,0.07,179.00,VWS V14.01,2013-04-24 18:19:00,
2013-04-24 13:20:00,51.8,37.5,30.29,NW,310,5.0,16.0,58,0.00,,CLR,0.07,179.00,VWS V15.00,2013-04-24 18:20:00,
2013-04-24 13:24:00,54.3,37.1,30.27,ENE,59,4.0,13.0,52,0.00,,FEW035,0.07,179.00,VWS V14.01,2013-04-24 18:24:00,
2013-04-24 13:29:00,54.6,37.3,30.27,NE,40,14.0,14.0,52,0.00,,FEW035,0.07,179.00,VWS V14.01,2013-04-24 18:29:00,
2013-04-24 13:30:00,52.3,38.0,30.29,WSW,250,3.0,14.0,58,0.00,,CLR,0.07,179.00,VWS V15.00,2013-04-24 18:30:00,
2013-04-24 13:34:00,54.7,37.9,30.26,NE,51,7.0,14.0,53,0.00,,CLR,0.07,179.00,VWS V14.01,2013-04-24 18:34:00,
2013-04-24 13:39:00,55.3,38.5,30.26,NE,38,6.0,14.0,53,0.00,,CLR,0.07,179.00,VWS V14.01,2013-04-24 18:39:00,
2013-04-24 13:40:00,52.6,37.8,30.29,NE,35,5.0,15.0,57,0.00,,CLR,0.07,179.00,VWS V15.00,2013-04-24 18:40:00,
2013-04-24 13:44:00,55.4,38.1,30.26,NNE,27,9.0,9.0,52,0.00,,CLR,0.07,179.00,VWS V14.01,2013-04-24 18:44:00,
2013-04-24 13:49:00,55.1,37.3,30.26,NE,49,3.0,13.0,51,0.00,,CLR,0.07,179.00,VWS V14.01,2013-04-24 18:49:00,
2013-04-24 13:50:00,52.9,38.1,30.29,NNW,340,9.0,14.0,57,0.00,,CLR,0.07,179.00,VWS V15.00,2013-04-24 18:50:00,
2013-04-24 13:54:00,55.2,37.4,30.26,ENE,63,10.0,18.0,51,0.00,,CLR,0.07,179.00,VWS V14.01,2013-04-24 18:54:00,
2013-04-24 13:59:00,55.6,37.8,30.26,WNW,292,1.0,18.0,51,0.00,,CLR,0.07,179.00,VWS V14.01,2013-04-24 18:59:00,
2013-04-24 14:00:00,52.6,36.9,30.27,NNW,343,1.0,15.0,55,0.00,,CLR,0.07,179.00,VWS V15.00,2013-04-24 19:00:00,
2013-04-24 14:04:00,55.9,37.0,30.26,NNE,12,9.0,15.0,49,0.00,,CLR,0.07,179.00,VWS V14.01,2013-04-24 19:04:00,
2013-04-24 14:09:00,55.7,36.3,30.26,NE,44,4.0,16.0,48,0.00,,CLR,0.07,179.00,VWS V14.01,2013-04-24 19:09:00,
2013-04-24 14:10:00,53.9,38.1,30.27,NE,34,7.0,14.0,55,0.00,,CLR,0.07,179.00,VWS V15.00,2013-04-24 19:10:00,
2013-04-24 14:14:00,56.4,37.5,30.26,NE,55,11.0,13.0,49,0.00,,CLR,0.07,179.00,VWS V14.01,2013-04-24 19:14:00,
2013-04-24 14:19:00,56.2,37.3,30.25,NE,34,6.0,19.0,49,0.00,,CLR,0.07,179.00,VWS V14.01,2013-04-24 19:19:00,
2013-04-24 14:20:00,54.3,38.5,30.27,NNE,23,3.0,14.0,55,0.00,,CLR,0.07,179.00,VWS V15.00,2013-04-24 19:20:00,
2013-04-24 14:24:00,56.6,37.2,30.25,East,90,12.0,15.0,48,0.00,,CLR,0.07,179.00,VWS V14.01,2013-04-24 19:24:00,
2013-04-24 14:29:00,56.8,36.8,30.25,North,349,2.0,15.0,47,0.00,,CLR,0.07,179.00,VWS V14.01,2013-04-24 19:29:00,
2013-04-24 14:30:00,54.6,37.3,30.26,NNE,12,6.0,14.0,52,0.00,,CLR,0.07,179.00,VWS V15.00,2013-04-24 19:30:00,
2013-04-24 14:34:00,57.0,37.5,30.24,NE,39,10.0,16.0,48,0.00,,CLR,0.07,179.00,VWS V14.01,2013-04-24 19:34:00,
2013-04-24 14:39:00,57.2,36.6,30.24,NNE,19,7.0,16.0,46,0.00,,CLR,0.07,179.00,VWS V14.01,2013-04-24 19:39:00,
2013-04-24 14:40:00,55.3,38.0,30.26,NNW,346,4.0,14.0,52,0.00,,CLR,0.07,179.00,VWS V15.00,2013-04-24 19:40:00,
2013-04-24 14:44:00,57.3,36.7,30.24,SSW,194,2.0,13.0,46,0.00,,CLR,0.07,179.00,VWS V14.01,2013-04-24 19:44:00,
2013-04-24 14:49:00,57.7,37.6,30.24,NE,49,8.0,14.0,47,0.00,,CLR,0.07,179.00,VWS V14.01,2013-04-24 19:49:00,
2013-04-24 14:50:00,55.2,37.4,30.26,NE,47,12.0,15.0,51,0.00,,CLR,0.07,179.00,VWS V15.00,2013-04-24 19:50:00,
2013-04-24 14:54:00,57.8,36.6,30.24,ENE,59,5.0,16.0,45,0.00,,CLR,0.07,179.00,VWS V14.01,2013-04-24 19:54:00,
2013-04-24 14:59:00,57.8,37.2,30.24,NNE,26,10.0,16.0,46,0.00,,CLR,0.07,179.00,VWS V14.01,2013-04-24 19:59:00,
2013-04-24 15:00:00,55.8,38.5,30.26,NNW,346,9.0,18.0,52,0.00,,CLR,0.07,179.00,VWS V15.00,2013-04-24 20:00:00,
2013-04-24 15:04:00,58.3,37.1,30.24,North,350,7.0,11.0,45,0.00,,CLR,0.07,179.00,VWS V14.01,2013-04-24 20:04:00,
2013-04-24 15:09:00,58.7,36.9,30.24,NE,53,6.0,11.0,44,0.00,,CLR,0.07,179.00,VWS V14.01,2013-04-24 20:09:00,
2013-04-24 15:10:00,55.7,36.8,30.26,NNE,31,8.0,16.0,49,0.00,,CLR,0.07,179.00,VWS V15.00,2013-04-24 20:10:00,
2013-04-24 15:14:00,58.8,37.5,30.24,ENE,66,3.0,10.0,45,0.00,,CLR,0.07,179.00,VWS V14.01,2013-04-24 20:14:00,
2013-04-24 15:19:00,59.1,37.8,30.24,NNE,20,10.0,16.0,45,0.00,,CLR,0.07,179.00,VWS V14.01,2013-04-24 20:19:00,
2013-04-24 15:20:00,56.3,37.4,30.25,NNW,344,7.0,19.0,49,0.00,,CLR,0.07,179.00,VWS V15.00,2013-04-24 20:20:00,
2013-04-24 15:24:00,59.1,37.8,30.24,NE,38,8.0,14.0,45,0.00,,CLR,0.07,179.00,VWS V14.01,2013-04-24 20:24:00,
2013-04-24 15:29:00,59.1,38.4,30.24,NNW,327,4.0,14.0,46,0.00,,CLR,0.07,179.00,VWS V14.01,2013-04-24 20:29:00,
2013-04-24 15:30:00,57.0,37.5,30.24,NE,42,9.0,17.0,48,0.00,,CLR,0.07,179.00,VWS V15.00,2013-04-24 20:30:00,
2013-04-24 15:34:00,60.0,38.0,30.24,ESE,119,2.0,13.0,44,0.00,,CLR,0.07,179.00,VWS V14.01,2013-04-24 20:34:00,
2013-04-24 15:39:00,59.5,37.0,30.24,NW,307,4.0,13.0,43,0.00,,CLR,0.07,179.00,VWS V14.01,2013-04-24 20:39:00,
2013-04-24 15:40:00,57.2,36.6,30.24,NW,326,6.0,16.0,46,0.00,,CLR,0.07,179.00,VWS V15.00,2013-04-24 20:40:00,
2013-04-24 15:44:00,59.7,37.8,30.24,ENE,59,8.0,10.0,44,0.00,,CLR,0.07,179.00,VWS V14.01,2013-04-24 20:44:00,
2013-04-24 15:49:00,59.6,37.7,30.23,West,276,1.0,14.0,44,0.00,,CLR,0.07,179.00,VWS V14.01,2013-04-24 20:49:00,
2013-04-24 15:50:00,57.7,37.1,30.24,ENE,58,3.0,14.0,46,0.00,,CLR,0.07,179.00,VWS V15.00,2013-04-24 20:50:00,
2013-04-24 15:54:00,59.6,38.2,30.23,NNW,347,4.0,10.0,45,0.00,,CLR,0.07,179.00,VWS V14.01,2013-04-24 20:54:00,
2013-04-24 15:59:00,59.3,38.5,30.23,West,275,1.0,13.0,46,0.00,,CLR,0.07,179.00,VWS V14.01,2013-04-24 20:59:00,
2013-04-24 16:00:00,57.9,36.7,30.24,NNW,334,7.0,16.0,45,0.00,,CLR,0.07,179.00,VWS V15.00,2013-04-24 21:00:00,
2013-04-24 16:04:00,59.9,38.0,30.23,ENE,63,5.0,11.0,44,0.00,,CLR,0.07,179.00,VWS V14.01,2013-04-24 21:04:00,
2013-04-24 16:09:00,59.6,38.2,30.23,NE,49,8.0,12.0,45,0.00,,CLR,0.07,179.00,VWS V14.01,2013-04-24 21:09:00,
2013-04-24 16:10:00,58.8,37.5,30.24,NNW,344,6.0,11.0,45,0.00,,CLR,0.07,179.00,VWS V15.00,2013-04-24 21:10:00,
2013-04-24 16:14:00,59.9,38.0,30.23,ENE,71,3.0,10.0,44,0.00,,CLR,0.07,179.00,VWS V14.01,2013-04-24 21:14:00,
2013-04-24 16:19:00,60.0,38.6,30.22,NNE,19,1.0,10.0,45,0.00,,CLR,0.07,179.00,VWS V14.01,2013-04-24 21:19:00,
2013-04-24 16:20:00,58.9,36.5,30.24,NW,321,3.0,16.0,43,0.00,,CLR,0.07,179.00,VWS V15.00,2013-04-24 21:20:00,
2013-04-24 16:24:00,60.4,38.4,30.22,NW,319,1.0,10.0,44,0.00,,CLR,0.07,179.00,VWS V14.01,2013-04-24 21:24:00,
2013-04-24 16:29:00,60.6,38.0,30.22,NNE,28,11.0,11.0,43,0.00,,CLR,0.07,179.00,VWS V14.01,2013-04-24 21:29:00,
2013-04-24 16:30:00,59.4,39.2,30.24,NNW,346,2.0,14.0,47,0.00,,CLR,0.07,179.00,VWS V15.00,2013-04-24 21:30:00,
2013-04-24 16:34:00,60.2,38.2,30.21,NNW,341,4.0,8.0,44,0.00,,CLR,0.07,179.00,VWS V14.01,2013-04-24 21:34:00,
2013-04-24 16:39:00,60.7,38.7,30.21,NE,42,7.0,11.0,44,0.00,,CLR,0.07,179.00,VWS V14.01,2013-04-24 21:39:00,
2013-04-24 16:40:00,59.6,37.1,30.24,ENE,63,3.0,13.0,43,0.00,,CLR,0.07,179.00,VWS V15.00,2013-04-24 21:40:00,
2013-04-24 16:44:00,60.0,37.5,30.21,ENE,59,6.0,14.0,43,0.00,,CLR,0.07,179.00,VWS V14.01,2013-04-24 21:44:00,
2013-04-24 16:49:00,60.3,37.7,30.21,NNW,341,2.0,14.0,43,0.00,,CLR,0.07,179.00,VWS V14.01,2013-04-24 21:49:00,
2013-04-24 16:50:00,59.7,38.3,30.23,NE,34,7.0,14.0,45,0.00,,CLR,0.07,179.00,VWS V15.00,2013-04-24 21:50:00,
2013-04-24 16:54:00,61.0,39.0,30.21,East,92,3.0,8.0,44,0.00,,CLR,0.07,179.00,VWS V14.01,2013-04-24 21:54:00,
2013-04-24 16:59:00,61.2,38.5,30.21,NNE,28,9.0,9.0,43,0.00,,CLR,0.07,179.00,VWS V14.01,2013-04-24 21:59:00,
2013-04-24 17:00:00,59.7,38.3,30.23,NNE,13,4.0,13.0,45,0.00,,CLR,0.07,179.00,VWS V15.00,2013-04-24 22:00:00,
2013-04-24 17:04:00,60.8,38.2,30.21,NNE,22,4.0,12.0,43,0.00,,CLR,0.07,179.00,VWS V14.01,2013-04-24 22:04:00,
2013-04-24 17:09:00,60.6,37.4,30.21,North,11,0.0,12.0,42,0.00,,CLR,0.07,179.00,VWS V14.01,2013-04-24 22:09:00,
2013-04-24 17:10:00,59.7,38.3,30.23,NE,55,3.0,12.0,45,0.00,,CLR,0.07,179.00,VWS V15.00,2013-04-24 22:10:00,
2013-04-24 17:14:00,60.9,37.7,30.21,NE,54,4.0,10.0,42,0.00,,CLR,0.07,179.00,VWS V14.01,2013-04-24 22:14:00,
2013-04-24 17:19:00,60.8,37.6,30.21,NNE,24,3.0,10.0,42,0.00,,CLR,0.07,179.00,VWS V14.01,2013-04-24 22:19:00,
2013-04-24 17:20:00,60.2,38.2,30.22,WNW,298,3.0,10.0,44,0.00,,CLR,0.07,179.00,VWS V15.00,2013-04-24 22:20:00,
2013-04-24 17:24:00,60.9,38.9,30.21,NE,38,3.0,8.0,44,0.00,,CLR,0.07,179.00,VWS V14.01,2013-04-24 22:24:00,
2013-04-24 17:29:00,60.9,38.3,30.21,ENE,71,5.0,10.0,43,0.00,,CLR,0.07,179.00,VWS V14.01,2013-04-24 22:29:00,
2013-04-24 17:30:00,60.5,37.3,30.21,East,89,5.0,13.0,42,0.00,,CLR,0.07,179.00,VWS V15.00,2013-04-24 22:30:00,
2013-04-24 17:34:00,61.2,38.5,30.21,NNW,342,2.0,6.0,43,0.00,,CLR,0.07,179.00,VWS V14.01,2013-04-24 22:34:00,
2013-04-24 17:39:00,61.4,38.1,30.21,NNW,338,5.0,9.0,42,0.00,,CLR,0.07,179.00,VWS V14.01,2013-04-24 22:39:00,
2013-04-24 17:40:00,60.4,37.2,30.21,North,5,3.0,11.0,42,0.00,,CLR,0.07,179.00,VWS V15.00,2013-04-24 22:40:00,
2013-04-24 17:44:00,61.0,38.4,30.21,NNE,22,4.0,8.0,43,0.00,,CLR,0.07,179.00,VWS V14.01,2013-04-24 22:44:00,
2013-04-24 17:49:00,60.9,37.7,30.20,NNE,31,6.0,13.0,42,0.00,,CLR,0.07,179.00,VWS V14.01,2013-04-24 22:49:00,
2013-04-24 17:50:00,60.5,38.5,30.21,NW,321,4.0,14.0,44,0.00,,CLR,0.07,179.00,VWS V15.00,2013-04-24 22:50:00,
2013-04-24 17:54:00,60.6,37.4,30.20,NNE,28,7.0,9.0,42,0.00,,CLR,0.07,179.00,VWS V14.01,2013-04-24 22:54:00,
2013-04-24 17:59:00,60.6,37.4,30.20,ENE,62,9.0,12.0,42,0.00,,CLR,0.07,179.00,VWS V14.01,2013-04-24 22:59:00,
2013-04-24 18:00:00,61.2,38.0,30.21,NE,54,7.0,10.0,42,0.00,,CLR,0.07,179.00,VWS V15.00,2013-04-24 23:00:00,
2013-04-24 18:04:00,60.5,38.5,30.21,NNE,31,3.0,11.0,44,0.00,,CLR,0.07,179.00,VWS V14.01,2013-04-24 23:04:00,
2013-04-24 18:09:00,60.9,38.3,30.21,WNW,300,2.0,11.0,43,0.00,,CLR,0.07,179.00,VWS V14.01,2013-04-24 23:09:00,
2013-04-24 18:10:00,60.7,38.1,30.21,NNE,25,2.0,12.0,43,0.00,,CLR,0.07,179.00,VWS V15.00,2013-04-24 23:10:00,
2013-04-24 18:14:00,60.8,38.2,30.21,NNE,13,6.0,7.0,43,0.00,,CLR,0.07,179.00,VWS V14.01,2013-04-24 23:14:00,
2013-04-24 18:19:00,60.5,37.9,30.21,ENE,62,1.0,12.0,43,0.00,,CLR,0.07,179.00,VWS V14.01,2013-04-24 23:19:00,
2013-04-24 18:20:00,60.7,37.5,30.21,NNE,20,7.0,10.0,42,0.00,,CLR,0.07,179.00,VWS V15.00,2013-04-24 23:20:00,
2013-04-24 18:24:00,60.8,38.2,30.21,NE,45,6.0,7.0,43,0.00,,CLR,0.07,179.00,VWS V14.01,2013-04-24 23:24:00,
2013-04-24 18:29:00,60.7,38.1,30.21,NNW,327,4.0,9.0,43,0.00,,CLR,0.07,179.00,VWS V14.01,2013-04-24 23:29:00,
2013-04-24 18:30:00,60.9,38.3,30.21,ESE,106,1.0,10.0,43,0.00,,CLR,0.07,179.00,VWS V15.00,2013-04-24 23:30:00,
2013-04-24 18:34:00,60.7,37.5,30.21,NNE,22,9.0,12.0,42,0.00,,SCT080,0.07,179.00,VWS V14.01,2013-04-24 23:34:00,
2013-04-24 18:39:00,60.5,39.1,30.21,NE,42,2.0,12.0,45,0.00,,SCT080,0.07,179.00,VWS V14.01,2013-04-24 23:39:00,
2013-04-24 18:40:00,61.3,37.4,30.21,North,350,4.0,9.0,41,0.00,,CLR,0.07,179.00,VWS V15.00,2013-04-24 23:40:00,
2013-04-24 18:44:00,60.5,38.5,30.21,NNE,22,6.0,6.0,44,0.00,,SCT080,0.07,179.00,VWS V14.01,2013-04-24 23:44:00,
2013-04-24 18:49:00,60.7,38.1,30.21,WNW,302,4.0,6.0,43,0.00,,SCT080,0.07,179.00,VWS V14.01,2013-04-24 23:49:00,
2013-04-24 18:50:00,60.8,38.2,30.20,NNE,32,9.0,13.0,43,0.00,,CLR,0.07,179.00,VWS V15.00,2013-04-24 23:50:00,
2013-04-24 18:54:00,60.7,38.7,30.21,ENE,61,2.0,4.0,44,0.00,,SCT080,0.07,179.00,VWS V14.01,2013-04-24 23:54:00,
2013-04-24 18:59:00,60.6,38.0,30.21,North,349,6.0,7.0,43,0.00,,SCT080,0.07,179.00,VWS V14.01,2013-04-24 23:59:00,
2013-04-24 19:00:00,60.4,37.2,30.21,NE,34,11.0,12.0,42,0.00,,CLR,0.07,179.00,VWS V15.00,2013-04-25 00:00:00,
2013-04-24 19:04:00,60.1,38.1,30.21,North,11,5.0,8.0,44,0.00,,FEW085,0.07,179.00,VWS V14.01,2013-04-25 00:04:00,
2013-04-24 19:09:00,60.0,38.0,30.21,NNW,337,3.0,11.0,44,0.00,,FEW085,0.07,179.00,VWS V14.01,2013-04-25 00:09:00,
2013-04-24 19:10:00,61.0,38.4,30.21,NNW,332,4.0,11.0,43,0.00,,CLR,0.07,179.00,VWS V15.00,2013-04-25 00:10:00,
2013-04-24 19:14:00,59.9,38.0,30.21,NE,47,3.0,7.0,44,0.00,,FEW085,0.07,179.00,VWS V14.01,2013-04-25 00:14:00,
2013-04-24 19:19:00,59.8,37.3,30.21,NE,42,2.0,9.0,43,0.00,,FEW085,0.07,179.00,VWS V14.01,2013-04-25 00:19:00,
2013-04-24 19:20:00,60.6,38.0,30.21,NE,47,7.0,12.0,43,0.00,,CLR,0.07,179.00,VWS V15.00,2013-04-25 00:20:00,
2013-04-24 19:24:00,59.8,37.9,30.21,NE,42,8.0,8.0,44,0.00,,FEW085,0.07,179.00,VWS V14.01,2013-04-25 00:24:00,
2013-04-24 19:29:00,59.5,38.2,30.21,NNE,17,4.0,10.0,45,0.00,,FEW085,0.07,179.00,VWS V14.01,2013-04-25 00:29:00,
2013-04-24 19:30:00,60.8,38.8,30.21,WNW,292,1.0,9.0,44,0.00,,CLR,0.07,179.00,VWS V15.00,2013-04-25 00:30:00,
2013-04-24 19:34:00,59.2,38.5,30.22,NE,40,2.0,4.0,46,0.00,,FEW085,0.07,179.00,VWS V14.01,2013-04-25 00:34:00,
2013-04-24 19:39:00,58.7,38.5,30.22,NNW,330,3.0,6.0,47,0.00,,FEW085,0.07,179.00,VWS V14.01,2013-04-25 00:39:00,
2013-04-24 19:40:00,60.5,38.5,30.21,NNE,22,2.0,12.0,44,0.00,,CLR,0.07,179.00,VWS V15.00,2013-04-25 00:40:00,
2013-04-24 19:44:00,58.4,38.3,30.22,NNE,19,3.0,6.0,47,0.00,,FEW085,0.07,179.00,VWS V14.01,2013-04-25 00:44:00,
2013-04-24 19:49:00,58.2,38.6,30.22,NE,34,4.0,6.0,48,0.00,,FEW085,0.07,179.00,VWS V14.01,2013-04-25 00:49:00,
2013-04-24 19:50:00,60.6,38.0,30.21,NNE,28,2.0,6.0,43,0.00,,CLR,0.07,179.00,VWS V15.00,2013-04-25 00:50:00,
2013-04-24 19:54:00,58.0,38.4,30.22,NNE,15,7.0,7.0,48,0.00,,FEW085,0.07,179.00,VWS V14.01,2013-04-25 00:54:00,
2013-04-24 19:59:00,57.9,38.9,30.22,NNE,33,3.0,7.0,49,0.00,,FEW085,0.07,179.00,VWS V14.01,2013-04-25 00:59:00,
2013-04-24 20:00:00,60.5,37.9,30.21,NNE,22,6.0,9.0,43,0.00,,CLR,0.07,179.00,VWS V15.00,2013-04-25 01:00:00,
2013-04-24 20:04:00,57.8,38.8,30.23,NNE,27,4.0,5.0,49,0.00,,FEW085,0.07,179.00,VWS V14.01,2013-04-25 01:04:00,
2013-04-24 20:09:00,57.7,38.7,30.23,NNW,336,2.0,5.0,49,0.00,,FEW085,0.07,179.00,VWS V14.01,2013-04-25 01:09:00,
2013-04-24 20:10:00,60.0,38.0,30.21,NE,38,7.0,11.0,44,0.00,,CLR,0.07,179.00,VWS V15.00,2013-04-25 01:10:00,
2013-04-24 20:14:00,57.6,38.6,30.23,NE,49,3.0,4.0,49,0.00,,FEW085,0.07,179.00,VWS V14.01,2013-04-25 01:14:00,
2013-04-24 20:19:00,57.5,39.0,30.23,NE,34,3.0,6.0,50,0.00,,FEW085,0.07,179.00,VWS V14.01,2013-04-25 01:19:00,
2013-04-24 20:20:00,59.8,37.3,30.21,NE,43,4.0,9.0,43,0.00,,CLR,0.07,179.00,VWS V15.00,2013-04-25 01:20:00,
2013-04-24 20:24:00,57.3,38.8,30.23,NE,42,3.0,3.0,50,0.00,,FEW085,0.07,179.00,VWS V14.01,2013-04-25 01:24:00,
2013-04-24 20:29:00,57.2,38.8,30.23,NE,47,2.0,4.0,50,0.00,,FEW085,0.07,179.00,VWS V14.01,2013-04-25 01:29:00,
2013-04-24 20:30:00,59.4,38.1,30.22,NE,34,2.0,10.0,45,0.00,,CLR,0.07,179.00,VWS V15.00,2013-04-25 01:30:00,
2013-04-24 20:34:00,57.2,38.8,30.24,NNE,28,2.0,5.0,50,0.00,,BKN100,0.07,179.00,VWS V14.01,2013-04-25 01:34:00,
2013-04-24 20:39:00,57.2,38.8,30.24,NNE,27,1.0,5.0,50,0.00,,BKN100,0.07,179.00,VWS V14.01,2013-04-25 01:39:00,
2013-04-24 20:40:00,58.6,38.5,30.22,NE,46,3.0,6.0,47,0.00,,CLR,0.07,179.00,VWS V15.00,2013-04-25 01:40:00,
2013-04-24 20:44:00,57.1,39.2,30.24,NNW,338,0.0,1.0,51,0.00,,BKN100,0.07,179.00,VWS V14.01,2013-04-25 01:44:00,
2013-04-24 20:49:00,56.9,39.5,30.24,NNE,22,0.0,3.0,52,0.00,,BKN100,0.07,179.00,VWS V14.01,2013-04-25 01:49:00,
2013-04-24 20:50:00,58.1,38.5,30.22,NNE,22,2.0,6.0,48,0.00,,CLR,0.07,179.00,VWS V15.00,2013-04-25 01:50:00,
2013-04-24 20:54:00,56.8,39.4,30.24,NE,38,2.0,3.0,52,0.00,,BKN100,0.07,179.00,VWS V14.01,2013-04-25 01:54:00,
2013-04-24 20:59:00,56.7,39.3,30.24,NE,35,2.0,3.0,52,0.00,,BKN100,0.07,179.00,VWS V14.01,2013-04-25 01:59:00,
2013-04-24 21:00:00,57.9,38.9,30.23,NE,50,1.0,7.0,49,0.00,,CLR,0.07,179.00,VWS V15.00,2013-04-25 02:00:00,
2013-04-24 21:04:00,56.8,39.4,30.25,NE,36,3.0,4.0,52,0.00,,BKN100,0.07,179.00,VWS V14.01,2013-04-25 02:04:00,
2013-04-24 21:09:00,56.8,39.4,30.25,NNE,22,3.0,4.0,52,0.00,,BKN100,0.07,179.00,VWS V14.01,2013-04-25 02:09:00,
2013-04-24 21:10:00,57.6,38.6,30.23,NE,43,4.0,5.0,49,0.00,,OVC019,0.07,179.00,VWS V15.00,2013-04-25 02:10:00,
2013-04-24 21:14:00,56.9,39.5,30.25,NNE,27,2.0,4.0,52,0.00,,BKN100,0.07,179.00,VWS V14.01,2013-04-25 02:14:00,
2013-04-24 21:19:00,56.8,39.4,30.25,NE,36,2.0,5.0,52,0.00,,BKN100,0.07,179.00,VWS V14.01,2013-04-25 02:19:00,
2013-04-24 21:20:00,57.4,38.9,30.23,NNW,331,2.0,6.0,50,0.00,,CLR,0.07,179.00,VWS V15.00,2013-04-25 02:20:00,
2013-04-24 21:24:00,56.7,39.3,30.25,NNE,27,2.0,5.0,52,0.00,,BKN100,0.07,179.00,VWS V14.01,2013-04-25 02:24:00,
2013-04-24 21:29:00,56.7,39.8,30.25,NE,34,2.0,5.0,53,0.00,,BKN100,0.07,179.00,VWS V14.01,2013-04-25 02:29:00,
2013-04-24 21:30:00,57.2,38.8,30.24,NNE,22,1.0,4.0,50,0.00,,CLR,0.07,179.00,VWS V15.00,2013-04-25 02:30:00,
2013-04-24 21:34:00,56.6,40.2,30.26,NNE,27,2.0,2.0,54,0.00,,BKN110,0.07,179.00,VWS V14.01,2013-04-25 02:34:00,
2013-04-24 21:39:00,56.5,40.1,30.26,NE,49,1.0,3.0,54,0.00,,BKN110,0.07,179.00,VWS V14.01,2013-04-25 02:39:00,
2013-04-24 21:40:00,57.2,39.2,30.24,NNW,338,1.0,5.0,51,0.00,,CLR,0.07,179.00,VWS V15.00,2013-04-25 02:40:00,
2013-04-24 21:44:00,56.5,40.5,30.26,NNE,24,1.0,1.0,55,0.00,,BKN110,0.07,179.00,VWS V14.01,2013-04-25 02:44:00,
2013-04-24 21:49:00,56.4,40.9,30.27,NNE,27,1.0,2.0,56,0.00,,BKN110,0.07,179.00,VWS V14.01,2013-04-25 02:49:00,
2013-04-24 21:50:00,56.8,39.4,30.24,NNE,22,1.0,3.0,52,0.00,,CLR,0.07,179.00,VWS V15.00,2013-04-25 02:50:00,
2013-04-24 21:54:00,56.3,41.3,30.27,NNE,26,0.0,2.0,57,0.00,,BKN110,0.07,179.00,VWS V14.01,2013-04-25 02:54:00,
2013-04-24 21:59:00,56.2,41.2,30.27,NNE,19,1.0,2.0,57,0.00,,BKN110,0.07,179.00,VWS V14.01,2013-04-25 02:59:00,
2013-04-24 22:00:00,56.7,39.3,30.25,NNE,30,3.0,4.0,52,0.00,,CLR,0.07,179.00,VWS V15.00,2013-04-25 03:00:00,
2013-04-24 22:04:00,56.1,41.1,30.27,North,355,1.0,3.0,57,0.00,,BKN110,0.07,179.00,VWS V14.01,2013-04-25 03:04:00,
2013-04-24 22:09:00,56.0,41.5,30.27,NNE,15,1.0,3.0,58,0.00,,BKN110,0.07,179.00,VWS V14.01,2013-04-25 03:09:00,
2013-04-24 22:10:00,56.9,39.5,30.25,NE,34,3.0,4.0,52,0.00,,CLR,0.07,179.00,VWS V15.00,2013-04-25 03:10:00,
2013-04-24 22:14:00,55.9,41.3,30.27,NNE,27,1.0,2.0,58,0.00,,BKN110,0.07,179.00,VWS V14.01,2013-04-25 03:14:00,
2013-04-24 22:19:00,55.9,41.3,30.28,NNE,24,0.0,3.0,58,0.00,,BKN110,0.07,179.00,VWS V14.01,2013-04-25 03:19:00,
2013-04-24 22:20:00,56.8,39.4,30.25,NNE,13,1.0,5.0,52,0.00,,CLR,0.07,179.00,VWS V15.00,2013-04-25 03:20:00,
2013-04-24 22:24:00,55.8,41.3,30.28,NE,39,3.0,3.0,58,0.00,,BKN110,0.07,179.00,VWS V14.01,2013-04-25 03:24:00,
2013-04-24 22:29:00,55.9,41.3,30.28,North,351,2.0,5.0,58,0.00,,BKN110,0.07,179.00,VWS V14.01,2013-04-25 03:29:00,
2013-04-24 22:30:00,56.7,39.8,30.26,NNE,13,2.0,5.0,53,0.00,,CLR,0.07,179.00,VWS V15.00,2013-04-25 03:30:00,
2013-04-24 22:34:00,55.9,41.3,30.28,NNE,31,1.0,2.0,58,0.00,,BKN110,0.07,179.00,VWS V14.01,2013-04-25 03:34:00,
2013-04-24 22:39:00,55.8,41.7,30.28,NNE,16,2.0,3.0,59,0.00,,BKN110,0.07,179.00,VWS V14.01,2013-04-25 03:39:00,
2013-04-24 22:40:00,56.5,40.1,30.26,NNE,24,1.0,3.0,54,0.00,,CLR,0.07,179.00,VWS V15.00,2013-04-25 03:40:00,
2013-04-24 22:44:00,55.7,41.6,30.28,NNE,30,2.0,4.0,59,0.00,,BKN110,0.07,179.00,VWS V14.01,2013-04-25 03:44:00,
2013-04-24 22:49:00,55.7,41.6,30.28,NNE,32,2.0,4.0,59,0.00,,BKN110,0.07,179.00,VWS V14.01,2013-04-25 03:49:00,
2013-04-24 22:50:00,56.3,40.8,30.27,NE,54,2.0,2.0,56,0.00,,CLR,0.07,179.00,VWS V15.00,2013-04-25 03:50:00,
2013-04-24 22:54:00,55.8,41.7,30.28,NNE,24,1.0,4.0,59,0.00,,BKN110,0.07,179.00,VWS V14.01,2013-04-25 03:54:00,
2013-04-24 22:59:00,55.8,41.7,30.28,NE,36,2.0,4.0,59,0.00,,BKN110,0.07,179.00,VWS V14.01,2013-04-25 03:59:00,
2013-04-24 23:00:00,56.1,41.1,30.27,NNE,31,2.0,2.0,57,0.00,,CLR,0.07,179.00,VWS V15.00,2013-04-25 04:00:00,
2013-04-24 23:01:00,55.8,41.7,30.28,NNE,22,2.0,2.0,59,0.00,,BKN110,0.07,179.00,VWS V14.01,2013-04-25 04:01:00,
2013-04-24 23:06:00,55.7,41.6,30.28,NNE,22,1.0,3.0,59,0.00,,BKN110,0.07,179.00,VWS V14.01,2013-04-25 04:06:00,
2013-04-24 23:10:00,56.0,41.5,30.27,NNE,28,2.0,3.0,58,0.00,,CLR,0.07,179.00,VWS V15.00,2013-04-25 04:10:00,
2013-04-24 23:11:00,55.7,41.6,30.28,NNE,24,3.0,3.0,59,0.00,,BKN110,0.07,179.00,VWS V14.01,2013-04-25 04:11:00,
2013-04-24 23:16:00,55.7,42.0,30.29,NNE,22,1.0,3.0,60,0.00,,BKN110,0.07,179.00,VWS V14.01,2013-04-25 04:16:00,
2013-04-24 23:20:00,55.9,41.3,30.28,NNE,19,1.0,3.0,58,0.00,,CLR,0.07,179.00,VWS V15.00,2013-04-25 04:20:00,
2013-04-24 23:21:00,55.6,42.0,30.29,NNE,12,2.0,2.0,60,0.00,,BKN110,0.07,179.00,VWS V14.01,2013-04-25 04:21:00,
2013-04-24 23:26:00,55.6,41.5,30.29,NE,36,2.0,3.0,59,0.00,,BKN110,0.07,179.00,VWS V14.01,2013-04-25 04:26:00,
2013-04-24 23:30:00,55.9,41.3,30.28,NNE,13,1.0,5.0,58,0.00,,CLR,0.07,179.00,VWS V15.00,2013-04-25 04:30:00,
2013-04-24 23:31:00,55.5,41.4,30.28,NNE,26,2.0,2.0,59,0.00,,BKN110,0.07,179.00,VWS V14.01,2013-04-25 04:31:00,
2013-04-24 23:36:00,55.4,41.3,30.28,NNW,344,1.0,3.0,59,0.00,,BKN085,0.07,179.00,VWS V14.01,2013-04-25 04:36:00,
2013-04-24 23:40:00,55.7,41.6,30.28,NNE,28,3.0,3.0,59,0.00,,CLR,0.07,179.00,VWS V15.00,2013-04-25 04:40:00,
2013-04-24 23:41:00,55.3,41.2,30.28,NNE,13,1.0,1.0,59,0.00,,BKN085,0.07,179.00,VWS V14.01,2013-04-25 04:41:00,
2013-04-24 23:46:00,55.3,41.2,30.29,NNE,17,2.0,3.0,59,0.00,,BKN085,0.07,179.00,VWS V14.01,2013-04-25 04:46:00,
2013-04-24 23:50:00,55.7,41.6,30.28,NNE,28,2.0,4.0,59,0.00,,CLR,0.07,179.00,VWS V15.00,2013-04-25 04:50:00,
2013-04-24 23:51:00,55.2,41.6,30.29,NNE,30,1.0,1.0,60,0.00,,BKN085,0.07,179.00,VWS V14.01,2013-04-25 04:51:00,
2013-04-24 23:56:00,55.1,41.9,30.29,NNE,24,0.0,2.0,61,0.00,,BKN085,0.07,179.00,VWS V14.01,2013-04-25 04:56:00,